Time;durP1;ratioP1;P1;durP2;ratioP2;P2;SDS_P1;SDS_P2;PMS_P1;PMS_P2;Temp;Humidity;BMP_temperature;BMP_pressure;BME280_temperature;BME280_humidity;BME280_pressure;Samples;Min_cycle;Max_cycle;Signal;HPM_P1;HPM_P2
2023/08/20 00:00:58;;;;;;;;;;;;;;;29.73;43.79;101798.16;5059664;28;19925;-85
2023/08/20 00:03:23;;;;;;;;;;;;;;;29.72;43.60;101800.13;5065049;28;19916;-85
2023/08/20 00:05:49;;;;;;;;;;;;;;;29.71;43.90;101800.47;5064213;28;20537;-85
2023/08/20 00:08:14;;;;;;;;;;;;;;;29.71;43.83;101797.69;5066353;28;20156;-85
2023/08/20 00:10:39;;;;;;;;;;;;;;;29.69;43.67;101798.06;5065217;28;19916;-85
2023/08/20 00:13:05;;;;;;;;;;;;;;;29.70;43.75;101796.91;5069108;28;20057;-85
2023/08/20 00:15:30;;;;;;;;;;;;;;;29.71;43.93;101798.50;5067577;28;19943;-85
2023/08/20 00:17:56;;;;;;;;;;;;;;;29.73;43.73;101793.44;5068297;28;20007;-85
2023/08/20 00:20:21;;;;;;;;;;;;;;;29.74;43.72;101785.94;5060147;28;20395;-85
2023/08/20 00:22:47;;;;;;;;;;;;;;;29.74;43.91;101786.75;5061463;28;19923;-85
2023/08/20 00:25:13;;;;;;;;;;;;;;;29.73;43.95;101790.66;5063491;28;19921;-85
2023/08/20 00:27:39;;;;;;;;;;;;;;;29.71;44.17;101794.94;5065645;28;19921;-85
2023/08/20 00:30:05;;;;;;;;;;;;;;;29.70;44.32;101796.09;5064633;28;19924;-85
2023/08/20 00:32:30;;;;;;;;;;;;;;;29.69;44.10;101792.53;5062920;28;20386;-85
2023/08/20 00:34:56;;;;;;;;;;;;;;;29.68;44.50;101796.44;5061918;28;20561;-85
2023/08/20 00:37:21;;;;;;;;;;;;;;;29.67;44.71;101796.81;5062675;28;20424;-85
2023/08/20 00:39:47;;;;;;;;;;;;;;;29.67;44.65;101797.63;5059822;28;20395;-84
2023/08/20 00:42:14;;;;;;;;;;;;;;;29.66;44.62;101798.78;5062332;28;19936;-85
2023/08/20 00:44:41;;;;;;;;;;;;;;;29.66;44.43;101792.44;5060808;28;20370;-85
2023/08/20 00:47:07;;;;;;;;;;;;;;;29.66;44.79;101796.00;5062068;28;20470;-85
2023/08/20 00:49:33;;;;;;;;;;;;;;;29.67;44.73;101794.03;5064928;28;19977;-85
2023/08/20 00:51:59;;;;;;;;;;;;;;;29.67;44.73;101792.09;5061605;28;19916;-85
2023/08/20 00:54:25;;;;;;;;;;;;;;;29.70;44.40;101791.38;5066557;28;19924;-85
2023/08/20 00:56:50;;;;;;;;;;;;;;;29.72;44.64;101783.53;5062944;28;19924;-85
2023/08/20 00:59:16;;;;;;;;;;;;;;;29.74;44.81;101785.94;5067153;28;20174;-85
2023/08/20 01:01:42;;;;;;;;;;;;;;;29.74;44.79;101785.94;5065760;28;20328;-85
2023/08/20 01:04:07;;;;;;;;;;;;;;;29.73;44.63;101787.91;5065429;28;19917;-85
2023/08/20 01:06:48;;;;;;;;;;;;;;;29.74;44.35;101781.22;5065813;28;20396;-85
2023/08/20 01:09:16;;;;;;;;;;;;;;;29.76;44.52;101795.47;5062757;28;19947;-84
2023/08/20 01:11:46;;;;;;;;;;;;;;;29.76;44.57;101795.47;5059343;28;19917;-85
2023/08/20 01:14:15;;;;;;;;;;;;;;;29.76;44.75;101792.72;5063381;28;19940;-86
2023/08/20 01:16:41;;;;;;;;;;;;;;;29.76;44.86;101789.16;5061050;28;20020;-85
2023/08/20 01:19:07;;;;;;;;;;;;;;;29.75;44.80;101809.66;5059201;28;20232;-85
2023/08/20 01:21:39;;;;;;;;;;;;;;;29.75;45.10;101809.66;5058122;28;19916;-85
2023/08/20 01:24:21;;;;;;;;;;;;;;;29.74;44.62;101817.13;5056881;28;20019;-84
2023/08/20 01:27:05;;;;;;;;;;;;;;;29.79;44.58;101816.88;5059621;28;19916;-85
2023/08/20 01:29:31;;;;;;;;;;;;;;;29.86;44.56;101818.22;5065102;28;19932;-85
2023/08/20 01:31:57;;;;;;;;;;;;;;;29.89;44.36;101809.22;5063352;28;19916;-85
2023/08/20 01:34:22;;;;;;;;;;;;;;;29.91;44.59;101807.72;5058587;28;19920;-85
2023/08/20 01:36:47;;;;;;;;;;;;;;;29.91;44.86;101812.44;5059100;28;20194;-85
2023/08/20 01:39:13;;;;;;;;;;;;;;;29.89;44.99;101807.28;5064053;28;19916;-84
2023/08/20 01:41:39;;;;;;;;;;;;;;;29.87;45.03;101817.88;5066033;28;19924;-85
2023/08/20 01:44:04;;;;;;;;;;;;;;;29.91;44.95;101820.72;5062545;28;20471;-85
2023/08/20 01:46:29;;;;;;;;;;;;;;;29.96;44.75;101818.50;5063553;28;20003;-85
2023/08/20 01:48:54;;;;;;;;;;;;;;;30.00;44.66;101819.41;5064597;28;19968;-85
2023/08/20 01:51:20;;;;;;;;;;;;;;;30.01;44.74;101818.25;5061595;28;19917;-85
2023/08/20 01:53:45;;;;;;;;;;;;;;;30.01;44.38;101821.03;5060992;28;19924;-85
2023/08/20 01:56:14;;;;;;;;;;;;;;;29.99;44.96;101825.31;5066250;28;20403;-85
2023/08/20 01:58:39;;;;;;;;;;;;;;;29.97;45.07;101822.88;5060918;28;19959;-85
2023/08/20 02:01:05;;;;;;;;;;;;;;;29.95;44.86;101824.38;5064998;28;20291;-86
2023/08/20 02:03:31;;;;;;;;;;;;;;;29.93;45.04;101832.22;5060785;28;19917;-85
2023/08/20 02:05:56;;;;;;;;;;;;;;;29.92;45.33;101827.84;5063360;28;19975;-85
2023/08/20 02:08:21;;;;;;;;;;;;;;;29.89;45.32;101831.34;5056750;28;20007;-85
2023/08/20 02:10:47;;;;;;;;;;;;;;;29.90;45.38;101838.47;5056410;28;19917;-85
2023/08/20 02:13:12;;;;;;;;;;;;;;;29.93;45.37;101854.34;5059407;28;19936;-85
2023/08/20 02:15:37;;;;;;;;;;;;;;;29.97;45.35;101844.16;5054613;28;19928;-85
2023/08/20 02:18:03;;;;;;;;;;;;;;;29.98;45.01;101852.13;5063918;28;20262;-85
2023/08/20 02:20:28;;;;;;;;;;;;;;;30.00;44.86;101837.97;5058691;28;19924;-85
2023/08/20 02:22:53;;;;;;;;;;;;;;;30.01;44.90;101842.34;5055145;28;19927;-85
2023/08/20 02:25:19;;;;;;;;;;;;;;;30.03;44.89;101840.00;5057606;28;19978;-85
2023/08/20 02:27:44;;;;;;;;;;;;;;;30.00;44.92;101840.72;5062268;28;19927;-85
2023/08/20 02:30:13;;;;;;;;;;;;;;;29.96;45.34;101843.38;5064255;28;19916;-85
2023/08/20 02:32:38;;;;;;;;;;;;;;;29.93;45.57;101849.59;5057330;28;20086;-85
2023/08/20 02:35:05;;;;;;;;;;;;;;;29.89;45.29;101842.38;5058540;28;20722;-84
2023/08/20 02:37:30;;;;;;;;;;;;;;;29.88;45.60;101843.53;5060321;28;19973;-85
2023/08/20 02:39:56;;;;;;;;;;;;;;;29.87;45.53;101844.69;5061148;28;19921;-85
2023/08/20 02:42:21;;;;;;;;;;;;;;;29.85;45.74;101836.78;5060508;28;19998;-84
2023/08/20 02:44:46;;;;;;;;;;;;;;;29.84;45.70;101834.38;5060329;28;19964;-85
2023/08/20 02:47:12;;;;;;;;;;;;;;;29.86;45.33;101837.56;5065959;28;19920;-85
2023/08/20 02:49:37;;;;;;;;;;;;;;;29.86;45.61;101832.06;5062593;28;20407;-85
2023/08/20 02:52:03;;;;;;;;;;;;;;;29.85;45.81;101825.72;5059080;28;19916;-84
2023/08/20 02:54:29;;;;;;;;;;;;;;;29.85;45.46;101824.91;5060984;28;20430;-85
2023/08/20 02:56:54;;;;;;;;;;;;;;;29.84;45.56;101817.78;5062007;28;20299;-85
2023/08/20 02:59:19;;;;;;;;;;;;;;;29.79;45.39;101821.59;5061545;28;20143;-85
2023/08/20 03:01:45;;;;;;;;;;;;;;;29.79;45.38;101827.91;5063967;28;19927;-85
2023/08/20 03:04:10;;;;;;;;;;;;;;;29.74;45.80;101825.41;5059522;28;19917;-85
2023/08/20 03:06:35;;;;;;;;;;;;;;;29.72;45.68;101826.94;5063366;28;20312;-85
2023/08/20 03:09:00;;;;;;;;;;;;;;;29.67;45.95;101825.22;5062079;28;20396;-84
2023/08/20 03:11:26;;;;;;;;;;;;;;;29.66;45.95;101822.81;5062191;28;19966;-85
2023/08/20 03:13:51;;;;;;;;;;;;;;;29.66;45.90;101834.66;5060715;28;19917;-85
2023/08/20 03:16:16;;;;;;;;;;;;;;;29.67;45.60;101841.81;5061793;28;19924;-85
2023/08/20 03:18:42;;;;;;;;;;;;;;;29.67;45.88;101841.00;5064046;28;20350;-85
2023/08/20 03:21:07;;;;;;;;;;;;;;;29.65;45.78;101849.63;5057329;28;19920;-85
2023/08/20 03:23:32;;;;;;;;;;;;;;;29.63;45.79;101849.19;5061633;28;20350;-85
2023/08/20 03:25:58;;;;;;;;;;;;;;;29.63;45.71;101854.72;5059145;28;19916;-84
2023/08/20 03:28:24;;;;;;;;;;;;;;;29.63;45.75;101851.94;5059155;28;20018;-85
2023/08/20 03:30:49;;;;;;;;;;;;;;;29.59;45.71;101851.03;5059577;28;20368;-85
2023/08/20 03:33:15;;;;;;;;;;;;;;;29.57;45.92;101860.81;5059845;28;19928;-85
2023/08/20 03:35:40;;;;;;;;;;;;;;;29.54;45.86;101851.28;5060748;28;19920;-85
2023/08/20 03:38:06;;;;;;;;;;;;;;;29.55;45.83;101854.84;5062899;28;20909;-85
2023/08/20 03:40:31;;;;;;;;;;;;;;;29.53;45.80;101863.47;5059281;28;19917;-85
2023/08/20 03:42:56;;;;;;;;;;;;;;;29.47;46.08;101876.75;5062332;28;19917;-85
2023/08/20 03:45:21;;;;;;;;;;;;;;;29.43;46.09;101872.22;5056849;28;19920;-85
2023/08/20 03:47:47;;;;;;;;;;;;;;;29.36;46.05;101874.78;5060072;28;20454;-85
2023/08/20 03:50:12;;;;;;;;;;;;;;;29.28;46.00;101879.28;5059461;28;19996;-85
2023/08/20 03:52:39;;;;;;;;;;;;;;;29.26;45.86;101887.09;5055966;28;20165;-85
2023/08/20 03:55:04;;;;;;;;;;;;;;;29.23;45.90;101886.97;5065145;28;20227;-85
2023/08/20 03:57:30;;;;;;;;;;;;;;;29.15;46.46;101895.06;5060226;28;19975;-85
2023/08/20 03:59:55;;;;;;;;;;;;;;;29.10;46.43;101898.06;5064679;28;20376;-85
2023/08/20 04:02:20;;;;;;;;;;;;;;;29.10;46.46;101900.81;5064993;28;19928;-85
2023/08/20 04:04:46;;;;;;;;;;;;;;;29.11;46.33;101904.38;5062200;28;19921;-85
2023/08/20 04:07:11;;;;;;;;;;;;;;;29.12;46.57;101912.31;5061089;28;19925;-85
2023/08/20 04:09:38;;;;;;;;;;;;;;;29.11;46.48;101915.41;5063312;28;20386;-85
2023/08/20 04:12:03;;;;;;;;;;;;;;;29.11;46.26;101907.94;5061609;28;19940;-85
2023/08/20 04:14:29;;;;;;;;;;;;;;;29.10;46.60;101917.38;5062153;28;20281;-85
2023/08/20 04:16:54;;;;;;;;;;;;;;;29.09;46.57;101914.97;5059431;28;20481;-85
2023/08/20 04:19:19;;;;;;;;;;;;;;;29.07;46.58;101925.50;5065431;28;20406;-84
2023/08/20 04:21:45;;;;;;;;;;;;;;;29.07;46.57;101923.56;5064887;28;19930;-85
2023/08/20 04:24:10;;;;;;;;;;;;;;;29.06;46.71;101930.22;5059875;28;19923;-85
2023/08/20 04:26:35;;;;;;;;;;;;;;;29.05;46.44;101928.63;5060353;28;19928;-84
2023/08/20 04:29:01;;;;;;;;;;;;;;;29.05;46.57;101923.09;5065048;28;19975;-84
2023/08/20 04:31:26;;;;;;;;;;;;;;;29.06;46.52;101930.22;5062899;28;19916;-85
2023/08/20 04:33:52;;;;;;;;;;;;;;;29.05;46.53;101931.38;5061409;28;19920;-84
2023/08/20 04:36:17;;;;;;;;;;;;;;;29.04;46.23;101923.44;5060355;28;19920;-84
2023/08/20 04:38:42;;;;;;;;;;;;;;;29.00;46.48;101928.84;5056163;28;20650;-84
2023/08/20 04:41:08;;;;;;;;;;;;;;;29.00;46.42;101922.53;5063021;28;19963;-85
2023/08/20 04:43:33;;;;;;;;;;;;;;;28.98;46.34;101925.63;5062427;28;19916;-84
2023/08/20 04:45:58;;;;;;;;;;;;;;;28.97;46.46;101926.78;5059119;28;20307;-84
2023/08/20 04:48:23;;;;;;;;;;;;;;;28.96;46.36;101938.97;5058448;28;19920;-84
2023/08/20 04:50:49;;;;;;;;;;;;;;;28.97;46.47;101934.25;5058827;28;20019;-84
2023/08/20 04:53:14;;;;;;;;;;;;;;;28.99;46.34;101938.28;5058533;28;20025;-84
2023/08/20 04:55:39;;;;;;;;;;;;;;;29.02;46.40;101940.34;5054777;28;19924;-84
2023/08/20 04:58:05;;;;;;;;;;;;;;;29.07;46.43;101945.63;5057540;28;19924;-85
2023/08/20 05:00:30;;;;;;;;;;;;;;;29.10;46.47;101942.22;5055502;28;20406;-84
2023/08/20 05:02:55;;;;;;;;;;;;;;;29.10;46.59;101941.41;5054651;28;20044;-84
2023/08/20 05:05:21;;;;;;;;;;;;;;;29.14;46.27;101951.41;5058608;28;20117;-84
2023/08/20 05:07:46;;;;;;;;;;;;;;;29.21;46.36;101955.53;5058471;28;20629;-84
2023/08/20 05:10:12;;;;;;;;;;;;;;;29.26;46.30;101950.56;5062232;28;19925;-84
2023/08/20 05:12:37;;;;;;;;;;;;;;;29.31;46.47;101950.34;5059912;28;19985;-84
2023/08/20 05:15:02;;;;;;;;;;;;;;;29.37;46.48;101943.44;5062480;28;20384;-84
2023/08/20 05:17:28;;;;;;;;;;;;;;;29.46;46.52;101940.59;5056879;28;19917;-84
2023/08/20 05:19:53;;;;;;;;;;;;;;;29.52;46.39;101950.22;5059256;28;19921;-84
2023/08/20 05:22:18;;;;;;;;;;;;;;;29.58;46.03;101948.03;5062111;28;19927;-84
2023/08/20 05:24:44;;;;;;;;;;;;;;;29.63;46.32;101948.63;5059987;28;19920;-84
2023/08/20 05:27:14;;;;;;;;;;;;;;;29.66;46.33;101950.66;5061799;28;19924;-84
2023/08/20 05:29:39;;;;;;;;;;;;;;;29.75;46.42;101947.75;5061935;28;19928;-84
2023/08/20 05:32:04;;;;;;;;;;;;;;;29.85;45.97;101936.22;5056757;28;19958;-84
2023/08/20 05:34:30;;;;;;;;;;;;;;;29.97;46.29;101930.63;5058826;28;19922;-84
2023/08/20 05:36:55;;;;;;;;;;;;;;;30.06;46.28;101939.63;5061237;28;19926;-84
2023/08/20 05:39:20;;;;;;;;;;;;;;;30.19;45.91;101947.88;5062204;28;20384;-85
2023/08/20 05:41:46;;;;;;;;;;;;;;;30.26;46.22;101950.81;5057427;28;19921;-84
2023/08/20 05:44:11;;;;;;;;;;;;;;;30.33;45.98;101957.31;5057019;28;19916;-85
2023/08/20 05:46:36;;;;;;;;;;;;;;;30.31;46.26;101959.66;5061845;28;19916;-85
2023/08/20 05:49:02;;;;;;;;;;;;;;;30.24;46.23;101965.00;5061068;28;20316;-85
2023/08/20 05:51:27;;;;;;;;;;;;;;;30.22;46.29;101972.84;5060460;28;19921;-84
2023/08/20 05:53:52;;;;;;;;;;;;;;;30.26;46.28;101972.94;5052586;28;20424;-86
2023/08/20 05:56:18;;;;;;;;;;;;;;;30.40;46.14;101967.78;5060268;28;19927;-85
2023/08/20 05:58:43;;;;;;;;;;;;;;;30.57;46.41;101966.66;5060590;28;19939;-85
2023/08/20 06:01:08;;;;;;;;;;;;;;;30.59;46.60;101972.66;5054933;28;19931;-85
2023/08/20 06:03:34;;;;;;;;;;;;;;;30.52;46.31;101973.28;5061754;28;19991;-85
2023/08/20 06:05:59;;;;;;;;;;;;;;;30.41;46.65;101974.94;5052407;28;19921;-85
2023/08/20 06:08:24;;;;;;;;;;;;;;;30.32;47.48;101977.03;5061631;28;20380;-84
2023/08/20 06:10:50;;;;;;;;;;;;;;;30.33;46.86;101973.91;5056026;28;20304;-85
2023/08/20 06:13:15;;;;;;;;;;;;;;;30.45;47.17;101977.78;5057550;28;19972;-86
2023/08/20 06:15:40;;;;;;;;;;;;;;;30.61;46.60;101981.38;5056059;28;20021;-86
2023/08/20 06:18:06;;;;;;;;;;;;;;;30.61;47.19;101978.63;5060587;28;19970;-86
2023/08/20 06:20:31;;;;;;;;;;;;;;;30.69;46.54;101977.66;5056239;28;19920;-86
2023/08/20 06:22:56;;;;;;;;;;;;;;;30.82;46.22;101981.97;5048196;28;19920;-86
2023/08/20 06:25:22;;;;;;;;;;;;;;;30.96;46.18;101976.00;5054571;28;19920;-87
2023/08/20 06:27:47;;;;;;;;;;;;;;;31.11;45.80;101974.38;5056550;28;19986;-86
2023/08/20 06:30:12;;;;;;;;;;;;;;;31.20;46.24;101972.25;5061558;28;19940;-86
2023/08/20 06:32:38;;;;;;;;;;;;;;;31.30;45.61;101968.94;5055911;28;19924;-86
2023/08/20 06:35:03;;;;;;;;;;;;;;;31.40;46.00;101973.91;5057958;28;19916;-85
2023/08/20 06:37:28;;;;;;;;;;;;;;;31.45;45.43;101968.09;5062312;28;20623;-85
2023/08/20 06:39:54;;;;;;;;;;;;;;;31.54;45.74;101973.44;5061392;28;20514;-86
2023/08/20 06:42:19;;;;;;;;;;;;;;;31.63;45.24;101978.78;5056810;28;19916;-85
2023/08/20 06:44:44;;;;;;;;;;;;;;;31.70;45.42;101976.16;5060281;28;19916;-85
2023/08/20 06:47:10;;;;;;;;;;;;;;;31.80;45.34;101978.38;5061996;28;19923;-85
2023/08/20 06:49:35;;;;;;;;;;;;;;;31.90;45.45;101983.34;5060847;28;19936;-85
2023/08/20 06:52:00;;;;;;;;;;;;;;;32.00;45.42;101990.28;5057040;28;19924;-85
2023/08/20 06:54:25;;;;;;;;;;;;;;;32.04;44.96;101989.19;5059280;28;20043;-85
2023/08/20 06:56:51;;;;;;;;;;;;;;;32.16;45.01;102000.13;5056647;28;19920;-86
2023/08/20 06:59:17;;;;;;;;;;;;;;;32.26;44.86;102000.69;5060502;28;19931;-85
2023/08/20 07:01:42;;;;;;;;;;;;;;;32.27;44.66;102005.91;5056259;28;19920;-86
2023/08/20 07:04:07;;;;;;;;;;;;;;;32.32;44.60;101997.31;5052172;28;19932;-85
2023/08/20 07:06:33;;;;;;;;;;;;;;;32.34;44.83;102003.28;5057322;28;19928;-86
2023/08/20 07:08:58;;;;;;;;;;;;;;;32.49;44.92;102014.63;5056871;28;19925;-85
2023/08/20 07:11:24;;;;;;;;;;;;;;;32.68;44.27;102012.66;5056038;28;20003;-85
2023/08/20 07:13:49;;;;;;;;;;;;;;;32.85;44.35;102027.22;5050458;28;19917;-86
2023/08/20 07:16:14;;;;;;;;;;;;;;;32.93;44.17;102040.06;5055001;28;19955;-86
2023/08/20 07:18:40;;;;;;;;;;;;;;;32.89;43.70;102048.34;5056200;28;19920;-85
2023/08/20 07:21:07;;;;;;;;;;;;;;;32.76;44.12;102044.09;5056123;28;20010;-85
2023/08/20 07:23:32;;;;;;;;;;;;;;;32.69;44.07;102042.00;5054958;28;20005;-86
2023/08/20 07:26:05;;;;;;;;;;;;;;;32.70;44.46;102046.38;5050771;28;19978;-90
2023/08/20 07:31:14;;;;;;;;;;;;;;;32.63;44.16;102043.47;5064634;28;20843;-87
2023/08/20 07:33:40;;;;;;;;;;;;;;;32.66;43.94;102042.72;5061419;28;19921;-85
2023/08/20 07:36:05;;;;;;;;;;;;;;;32.69;44.08;102055.06;5062120;28;19932;-86
2023/08/20 07:38:30;;;;;;;;;;;;;;;32.82;43.94;102061.25;5056968;28;19920;-85
2023/08/20 07:40:56;;;;;;;;;;;;;;;32.88;43.52;102065.38;5064395;28;19920;-84
2023/08/20 07:43:21;;;;;;;;;;;;;;;32.98;43.82;102068.31;5061965;28;19928;-87
2023/08/20 07:45:46;;;;;;;;;;;;;;;33.11;43.46;102062.59;5060338;28;19974;-86
2023/08/20 07:48:12;;;;;;;;;;;;;;;33.21;43.19;102067.50;5062288;28;19967;-83
2023/08/20 07:50:37;;;;;;;;;;;;;;;33.15;43.28;102075.34;5061714;28;19921;-85
2023/08/20 07:53:02;;;;;;;;;;;;;;;33.14;43.26;102075.72;5055521;28;20387;-83
2023/08/20 07:55:27;;;;;;;;;;;;;;;33.13;43.16;102082.44;5056320;28;20550;-87
2023/08/20 07:57:53;;;;;;;;;;;;;;;32.99;42.84;102083.00;5066632;28;19916;-84
2023/08/20 08:00:18;;;;;;;;;;;;;;;32.91;43.11;102084.06;5060355;28;19921;-86
2023/08/20 08:02:45;;;;;;;;;;;;;;;32.89;43.27;102083.63;5058153;28;20292;-85
2023/08/20 08:05:10;;;;;;;;;;;;;;;32.93;43.17;102092.81;5061244;28;20012;-85
2023/08/20 08:07:35;;;;;;;;;;;;;;;32.93;42.76;102095.59;5061927;28;20011;-87
2023/08/20 08:10:01;;;;;;;;;;;;;;;32.82;42.52;102097.34;5061003;28;19928;-87
2023/08/20 08:12:26;;;;;;;;;;;;;;;32.73;42.99;102101.16;5060205;28;19923;-84
2023/08/20 08:14:52;;;;;;;;;;;;;;;32.65;43.14;102104.94;5064807;28;19917;-83
2023/08/20 08:17:17;;;;;;;;;;;;;;;32.66;43.03;102103.75;5060784;28;20461;-87
2023/08/20 08:19:42;;;;;;;;;;;;;;;32.65;43.26;102102.16;5059268;28;19920;-83
2023/08/20 08:22:08;;;;;;;;;;;;;;;32.62;43.22;102100.13;5058020;28;19920;-87
2023/08/20 08:24:33;;;;;;;;;;;;;;;32.53;43.14;102104.31;5055824;28;19924;-86
2023/08/20 08:26:58;;;;;;;;;;;;;;;32.49;43.17;102104.22;5056198;28;19920;-89
2023/08/20 08:29:23;;;;;;;;;;;;;;;32.45;43.47;102108.88;5061298;28;19924;-87
2023/08/20 08:31:49;;;;;;;;;;;;;;;32.46;43.51;102099.41;5055518;28;19917;-85
2023/08/20 08:34:14;;;;;;;;;;;;;;;32.54;43.27;102103.94;5058332;28;20473;-87
2023/08/20 08:36:39;;;;;;;;;;;;;;;32.55;43.25;102108.31;5056307;28;19916;-87
2023/08/20 08:39:05;;;;;;;;;;;;;;;32.62;42.97;102108.44;5060286;28;19924;-85
2023/08/20 08:41:32;;;;;;;;;;;;;;;32.66;43.03;102100.97;5057166;28;20388;-86
2023/08/20 08:43:57;;;;;;;;;;;;;;;32.72;42.81;102096.75;5054914;28;20404;-86
2023/08/20 08:46:24;;;;;;;;;;;;;;;32.84;42.85;102103.34;5058617;28;20005;-86
2023/08/20 08:48:49;;;;;;;;;;;;;;;32.81;42.89;102101.28;5060512;28;19924;-83
2023/08/20 08:51:14;;;;;;;;;;;;;;;32.90;42.97;102104.66;5055904;28;19920;-83
2023/08/20 08:53:42;;;;;;;;;;;;;;;33.12;42.58;102103.06;5058533;28;19924;-86
2023/08/20 08:56:07;;;;;;;;;;;;;;;33.35;42.85;102096.34;5053751;28;19950;-85
2023/08/20 08:58:32;;;;;;;;;;;;;;;33.60;42.06;102091.22;5055062;28;20467;-85
2023/08/20 09:00:58;;;;;;;;;;;;;;;33.79;42.03;102092.28;5061271;28;20440;-84
2023/08/20 09:03:24;;;;;;;;;;;;;;;34.00;41.74;102092.59;5057959;28;19920;-84
2023/08/20 09:05:50;;;;;;;;;;;;;;;34.27;41.18;102096.13;5061153;28;20020;-90
2023/08/20 09:08:22;;;;;;;;;;;;;;;34.48;40.60;102107.56;5058050;28;19974;-85
2023/08/20 09:10:51;;;;;;;;;;;;;;;34.54;40.59;102106.03;5059770;28;20227;-84
2023/08/20 09:13:17;;;;;;;;;;;;;;;34.69;40.63;102095.88;5057662;28;19927;-83
2023/08/20 09:15:42;;;;;;;;;;;;;;;34.94;40.82;102090.56;5057779;28;19917;-86
2023/08/20 09:18:11;;;;;;;;;;;;;;;35.14;40.21;102086.38;5056086;28;19943;-84
2023/08/20 09:20:37;;;;;;;;;;;;;;;35.30;40.36;102096.47;5059468;28;19921;-87
2023/08/20 09:23:02;;;;;;;;;;;;;;;35.44;39.46;102085.47;5055096;28;19925;-85
2023/08/20 09:25:27;;;;;;;;;;;;;;;35.41;39.30;102080.69;5059309;28;20313;-84
2023/08/20 09:27:54;;;;;;;;;;;;;;;35.48;39.39;102075.13;5053209;28;19968;-84
2023/08/20 09:30:20;;;;;;;;;;;;;;;35.57;39.40;102077.59;5059903;28;20810;-84
2023/08/20 09:33:02;;;;;;;;;;;;;;;35.72;39.53;102077.28;5062679;28;19917;-83
2023/08/20 09:35:27;;;;;;;;;;;;;;;35.85;39.38;102071.41;5060029;28;20007;-84
2023/08/20 09:37:58;;;;;;;;;;;;;;;35.84;38.77;102072.59;5058967;28;20007;-82
2023/08/20 09:40:23;;;;;;;;;;;;;;;35.89;38.82;102070.25;5058451;28;19924;-85
2023/08/20 09:42:48;;;;;;;;;;;;;;;36.03;38.91;102061.16;5055439;28;19970;-87
2023/08/20 09:45:14;;;;;;;;;;;;;;;36.21;38.54;102061.22;5054606;28;20303;-85
2023/08/20 09:47:42;;;;;;;;;;;;;;;36.36;38.75;102067.69;5055211;28;20384;-84
2023/08/20 09:50:10;;;;;;;;;;;;;;;36.54;38.18;102068.53;5055249;28;19920;-85
2023/08/20 09:52:39;;;;;;;;;;;;;;;36.70;38.07;102066.19;5053234;28;20019;-86
2023/08/20 09:55:16;;;;;;;;;;;;;;;36.82;38.09;102059.47;5060512;28;20410;-86
2023/08/20 09:57:41;;;;;;;;;;;;;;;36.90;37.35;102063.84;5071965;28;19917;-86
2023/08/20 10:00:10;;;;;;;;;;;;;;;36.93;37.62;102063.03;5054417;28;19966;-86
2023/08/20 10:02:36;;;;;;;;;;;;;;;37.02;37.93;102069.03;5057104;28;20173;-85
2023/08/20 10:05:03;;;;;;;;;;;;;;;37.11;37.07;102074.22;5055285;28;19954;-85
2023/08/20 10:07:31;;;;;;;;;;;;;;;37.20;37.39;102075.44;5056993;28;19917;-84
2023/08/20 10:10:00;;;;;;;;;;;;;;;37.32;36.60;102068.66;5058759;28;19932;-84
2023/08/20 10:12:25;;;;;;;;;;;;;;;37.42;36.95;102067.84;5057775;28;19939;-85
2023/08/20 10:14:51;;;;;;;;;;;;;;;37.47;37.17;102070.22;5059610;28;19916;-85
2023/08/20 10:17:17;;;;;;;;;;;;;;;37.58;36.66;102075.81;5059755;28;19966;-82
2023/08/20 10:19:42;;;;;;;;;;;;;;;37.68;36.03;102074.97;5058589;28;19916;-84
2023/08/20 10:22:08;;;;;;;;;;;;;;;37.66;36.47;102073.78;5063033;28;19947;-83
2023/08/20 10:24:40;;;;;;;;;;;;;;;37.72;36.43;102075.81;5064205;28;19944;-85
2023/08/20 10:27:09;;;;;;;;;;;;;;;37.82;36.42;102079.78;5055346;28;20030;-83
2023/08/20 10:29:38;;;;;;;;;;;;;;;37.98;36.11;102076.53;5054347;28;19921;-85
2023/08/20 10:32:08;;;;;;;;;;;;;;;38.04;35.85;102080.50;5055920;28;20278;-83
2023/08/20 10:34:35;;;;;;;;;;;;;;;37.92;34.91;102083.75;5054208;28;19917;-83
2023/08/20 10:37:02;;;;;;;;;;;;;;;37.83;35.32;102081.38;5059370;28;19924;-84
2023/08/20 10:39:27;;;;;;;;;;;;;;;37.81;36.10;102092.16;5072007;28;19936;-84
2023/08/20 10:42:12;;;;;;;;;;;;;;;37.90;36.09;102091.75;5057239;28;19917;-85
2023/08/20 10:44:55;;;;;;;;;;;;;;;38.04;35.57;102086.09;5063069;28;20254;-84
2023/08/20 10:47:22;;;;;;;;;;;;;;;37.95;35.05;102077.34;5052843;28;21453;-84
2023/08/20 10:49:51;;;;;;;;;;;;;;;37.89;34.46;102079.78;5057797;28;20129;-84
2023/08/20 10:52:17;;;;;;;;;;;;;;;37.90;35.72;102077.78;5058462;28;20005;-83
2023/08/20 10:54:43;;;;;;;;;;;;;;;37.89;34.48;102085.38;5061276;28;19966;-84
2023/08/20 10:57:08;;;;;;;;;;;;;;;37.85;35.11;102084.56;5055528;28;19924;-83
2023/08/20 10:59:38;;;;;;;;;;;;;;;37.86;34.65;102085.34;5058405;28;19990;-83
2023/08/20 11:02:07;;;;;;;;;;;;;;;37.97;35.51;102081.34;5056804;28;19932;-83
2023/08/20 11:04:33;;;;;;;;;;;;;;;38.02;35.17;102088.50;5056964;28;19931;-81
2023/08/20 11:06:59;;;;;;;;;;;;;;;38.12;34.72;102076.47;5057148;28;19921;-81
2023/08/20 11:09:25;;;;;;;;;;;;;;;38.35;35.04;102081.59;5060841;28;19950;-83
2023/08/20 11:11:51;;;;;;;;;;;;;;;38.51;34.87;102081.91;5057791;28;20391;-83
2023/08/20 11:14:17;;;;;;;;;;;;;;;38.58;34.79;102081.84;5050711;28;20230;-82
2023/08/20 11:16:43;;;;;;;;;;;;;;;38.55;33.62;102079.88;5053609;28;20295;-83
2023/08/20 11:19:09;;;;;;;;;;;;;;;38.53;33.17;102082.28;5053442;28;20558;-83
2023/08/20 11:21:35;;;;;;;;;;;;;;;38.48;34.50;102091.13;5052949;28;19973;-84
2023/08/20 11:24:03;;;;;;;;;;;;;;;38.59;34.67;102079.84;5058554;28;19928;-83
2023/08/20 11:26:28;;;;;;;;;;;;;;;38.63;33.76;102091.84;5052602;28;19927;-84
2023/08/20 11:28:54;;;;;;;;;;;;;;;38.63;34.14;102089.06;5061511;28;19925;-83
2023/08/20 11:31:19;;;;;;;;;;;;;;;38.78;34.38;102100.97;5046776;28;20427;-81
2023/08/20 11:33:45;;;;;;;;;;;;;;;38.87;33.96;102098.50;5053005;28;19920;-84
2023/08/20 11:36:10;;;;;;;;;;;;;;;38.90;34.33;102100.50;5050321;28;19928;-83
2023/08/20 11:38:35;;;;;;;;;;;;;;;38.97;34.04;102094.84;5058013;28;19970;-81
2023/08/20 11:41:01;;;;;;;;;;;;;;;39.06;33.86;102099.97;5055907;28;20303;-82
2023/08/20 11:43:29;;;;;;;;;;;;;;;39.18;33.84;102107.91;5058107;28;19920;-84
2023/08/20 11:45:55;;;;;;;;;;;;;;;39.19;33.68;102115.13;5056648;28;20224;-83
2023/08/20 11:48:21;;;;;;;;;;;;;;;39.21;33.97;102119.09;5060043;28;19978;-84
2023/08/20 11:50:47;;;;;;;;;;;;;;;39.21;33.40;102124.72;5057941;28;20467;-83
2023/08/20 11:53:12;;;;;;;;;;;;;;;39.13;32.36;102128.75;5055363;28;19923;-84
2023/08/20 11:55:38;;;;;;;;;;;;;;;39.08;32.57;102129.22;5049840;28;19920;-83
2023/08/20 11:58:04;;;;;;;;;;;;;;;39.06;33.42;102126.00;5053297;28;19947;-82
2023/08/20 12:00:30;;;;;;;;;;;;;;;39.12;33.16;102118.75;5054139;28;20391;-83
2023/08/20 12:02:56;;;;;;;;;;;;;;;39.05;32.80;102127.19;5055295;28;19927;-82
2023/08/20 12:05:27;;;;;;;;;;;;;;;39.09;33.54;102128.00;5056505;28;19924;-84
2023/08/20 12:08:00;;;;;;;;;;;;;;;39.24;33.59;102129.47;5052985;28;20011;-84
2023/08/20 12:10:26;;;;;;;;;;;;;;;39.45;33.23;102119.28;5058310;28;19920;-83
2023/08/20 12:12:52;;;;;;;;;;;;;;;39.45;32.14;102113.69;5053772;28;19924;-81
2023/08/20 12:15:18;;;;;;;;;;;;;;;39.47;33.04;102116.84;5060196;28;19927;-83
2023/08/20 12:17:44;;;;;;;;;;;;;;;39.56;32.73;102111.59;5060633;28;20146;-82
2023/08/20 12:20:12;;;;;;;;;;;;;;;39.58;32.95;102109.19;5059994;28;19986;-84
2023/08/20 12:22:40;;;;;;;;;;;;;;;39.64;32.80;102112.31;5057285;28;19927;-82
2023/08/20 12:25:06;;;;;;;;;;;;;;;39.70;32.67;102110.66;5059017;28;19920;-82
2023/08/20 12:27:31;;;;;;;;;;;;;;;39.71;31.72;102109.47;5059253;28;19946;-84
2023/08/20 12:29:57;;;;;;;;;;;;;;;39.73;32.71;102115.44;5058055;28;19928;-83
2023/08/20 12:32:22;;;;;;;;;;;;;;;39.71;32.20;102107.44;5056212;28;19920;-84